Time;durP1;ratioP1;P1;durP2;ratioP2;P2;SDS_P1;SDS_P2;PMS_P1;PMS_P2;Temp;Humidity;BMP_temperature;BMP_pressure;BME280_temperature;BME280_humidity;BME280_pressure;Samples;Min_cycle;Max_cycle;Signal;HPM_P1;HPM_P2
2023/05/15 00:02:27;;;;;;;13.27;8.88;;;;;;;10.96;100.00;98025.41;4485199;32;20130;-65
2023/05/15 00:04:54;;;;;;;12.85;8.35;;;;;;;11.01;100.00;98020.50;4484948;31;20943;-65
2023/05/15 00:07:22;;;;;;;14.18;8.98;;;;;;;10.94;100.00;98018.69;4485092;31;20153;-65
2023/05/15 00:09:49;;;;;;;13.05;8.65;;;;;;;10.96;100.00;98012.31;4485005;31;20096;-65
2023/05/15 00:12:16;;;;;;;11.65;8.20;;;;;;;10.99;100.00;98022.47;4489785;31;20469;-65
2023/05/15 00:14:44;;;;;;;12.60;8.68;;;;;;;10.99;100.00;98034.75;4498341;31;20100;-65
2023/05/15 00:17:11;;;;;;;13.95;8.35;;;;;;;11.10;100.00;98036.28;4484974;31;20109;-65
2023/05/15 00:19:38;;;;;;;12.55;8.73;;;;;;;11.08;100.00;98041.69;4485011;32;20117;-65
2023/05/15 00:22:06;;;;;;;14.35;8.65;;;;;;;11.08;100.00;98046.09;4484938;32;20168;-65
2023/05/15 00:24:33;;;;;;;14.93;8.65;;;;;;;11.09;100.00;98043.31;4485055;31;20153;-65
2023/05/15 00:27:01;;;;;;;13.77;8.82;;;;;;;11.17;100.00;98051.22;4484803;31;20728;-65
2023/05/15 00:29:29;;;;;;;13.77;8.50;;;;;;;11.19;100.00;98049.25;4484984;31;20156;-65
2023/05/15 00:31:56;;;;;;;13.35;8.13;;;;;;;11.19;100.00;98048.44;4484652;32;20119;-65
2023/05/15 00:34:24;;;;;;;11.73;8.43;;;;;;;11.23;100.00;98041.06;4484913;31;20520;-65
2023/05/15 00:36:51;;;;;;;13.57;8.57;;;;;;;11.21;100.00;98037.78;4484936;31;20499;-65
2023/05/15 00:39:18;;;;;;;13.43;8.93;;;;;;;11.23;100.00;98035.81;4484757;31;20160;-65
2023/05/15 00:41:47;;;;;;;13.90;8.73;;;;;;;11.13;100.00;98034.16;4484710;31;20536;-65
2023/05/15 00:44:16;;;;;;;13.35;8.55;;;;;;;11.13;100.00;98030.72;4484748;32;20481;-65
2023/05/15 00:46:44;;;;;;;17.10;8.65;;;;;;;11.13;100.00;98035.97;4484767;32;20100;-65
2023/05/15 00:49:13;;;;;;;13.07;8.80;;;;;;;11.18;100.00;98031.06;4485102;31;20912;-65
2023/05/15 00:51:43;;;;;;;13.13;7.95;;;;;;;11.13;100.00;98021.03;4484554;31;20160;-65
2023/05/15 00:54:10;;;;;;;11.20;8.07;;;;;;;11.19;100.00;98023.03;4483027;32;20131;-65
2023/05/15 00:56:38;;;;;;;14.20;8.23;;;;;;;11.21;100.00;98020.25;4484555;31;20116;-65
2023/05/15 00:59:05;;;;;;;13.80;7.37;;;;;;;11.14;100.00;98012.22;4484928;31;20127;-65
2023/05/15 01:01:33;;;;;;;12.55;7.65;;;;;;;11.08;100.00;98010.22;4483169;32;20092;-65
2023/05/15 01:04:02;;;;;;;11.38;7.47;;;;;;;11.08;100.00;98005.00;4483323;32;20097;-65
2023/05/15 01:06:30;;;;;;;19.00;9.30;;;;;;;11.12;100.00;97992.38;4482824;32;20481;-65
2023/05/15 01:09:03;;;;;;;18.75;8.63;;;;;;;11.09;100.00;97992.69;4484569;31;20479;-65
2023/05/15 01:11:35;;;;;;;21.58;9.38;;;;;;;11.04;100.00;97987.94;4484605;31;20174;-66
2023/05/15 01:14:04;;;;;;;18.30;9.57;;;;;;;11.07;100.00;97982.38;4483385;32;20180;-65
2023/05/15 01:16:32;;;;;;;17.40;10.05;;;;;;;11.13;100.00;97988.78;4498246;31;20149;-65
2023/05/15 01:19:01;;;;;;;24.30;9.20;;;;;;;11.13;100.00;97984.34;4500292;31;20140;-65
2023/05/15 01:21:35;;;;;;;25.95;10.10;;;;;;;11.15;100.00;97971.09;4500029;31;20092;-65
2023/05/15 01:24:48;;;;;;;43.33;10.88;;;;;;;11.12;100.00;97960.91;4500101;31;20155;-65
2023/05/15 01:27:27;;;;;;;26.83;9.75;;;;;;;11.10;100.00;97953.22;4498769;31;20142;-65
2023/05/15 01:30:03;;;;;;;23.48;9.82;;;;;;;11.07;100.00;97961.41;4500014;31;20205;-65
2023/05/15 01:32:42;;;;;;;17.15;9.38;;;;;;;11.05;100.00;97979.06;4499893;31;20118;-65
2023/05/15 01:35:47;;;;;;;40.10;11.55;;;;;;;11.04;100.00;97981.84;4500079;31;20080;-65
2023/05/15 01:38:32;;;;;;;26.87;11.23;;;;;;;11.00;100.00;97971.69;4434953;32;20106;-65
2023/05/15 01:41:20;;;;;;;38.05;10.55;;;;;;;10.99;100.00;97970.06;4434825;32;20816;-65
2023/05/15 01:43:54;;;;;;;17.60;9.68;;;;;;;11.01;100.00;97983.00;4434897;32;20309;-65
2023/05/15 01:46:22;;;;;;;16.60;9.98;;;;;;;10.99;100.00;97979.72;4422312;32;20247;-65
2023/05/15 01:48:51;;;;;;;18.08;10.50;;;;;;;10.98;100.00;97976.28;4434798;32;20193;-65
2023/05/15 01:51:19;;;;;;;20.30;10.77;;;;;;;11.00;100.00;97976.94;4422120;32;20125;-65
2023/05/15 01:53:48;;;;;;;18.87;11.45;;;;;;;11.03;100.00;97975.78;4421944;32;20642;-65
2023/05/15 01:56:18;;;;;;;17.67;9.77;;;;;;;11.03;100.00;97964.50;4434469;32;20128;-65
2023/05/15 01:58:46;;;;;;;18.55;10.55;;;;;;;11.10;100.00;97973.37;4422302;32;20117;-65
2023/05/15 02:01:14;;;;;;;14.90;10.02;;;;;;;11.09;100.00;97985.62;4421862;32;20494;-65
2023/05/15 02:03:45;;;;;;;16.37;10.10;;;;;;;11.09;100.00;97990.06;4434415;32;20127;-65
2023/05/15 02:06:12;;;;;;;15.38;10.13;;;;;;;11.05;100.00;97988.75;4436306;32;20406;-65
2023/05/15 02:08:41;;;;;;;19.15;10.27;;;;;;;11.00;100.00;97994.47;4436673;32;20246;-65
2023/05/15 02:11:08;;;;;;;15.00;10.05;;;;;;;11.06;100.00;98003.50;4436659;32;20163;-65
2023/05/15 02:13:37;;;;;;;19.50;10.77;;;;;;;11.04;100.00;98011.53;4421318;32;20203;-65
2023/05/15 02:16:04;;;;;;;16.23;9.98;;;;;;;10.98;100.00;98009.53;4489695;31;20114;-65
2023/05/15 02:18:32;;;;;;;20.85;11.20;;;;;;;10.96;100.00;98025.41;4500449;31;20128;-65
2023/05/15 02:21:01;;;;;;;13.70;10.05;;;;;;;10.94;100.00;98024.75;4501559;31;20096;-65
2023/05/15 02:23:28;;;;;;;17.10;10.43;;;;;;;11.05;100.00;98025.44;4501485;31;20147;-66
2023/05/15 02:26:16;;;;;;;29.33;10.48;;;;;;;11.01;100.00;98038.06;4500318;31;20088;-65
2023/05/15 02:28:58;;;;;;;20.77;10.30;;;;;;;10.98;100.00;98031.31;4501816;31;20444;-65
2023/05/15 02:31:54;;;;;;;25.10;10.77;;;;;;;11.02;100.00;98029.19;4501445;31;20597;-65
2023/05/15 02:34:41;;;;;;;23.60;10.15;;;;;;;10.95;100.00;98033.44;4500633;31;20096;-65
2023/05/15 02:37:10;;;;;;;37.88;11.20;;;;;;;10.98;100.00;98017.41;4500373;31;20084;-65
2023/05/15 02:39:37;;;;;;;37.85;11.63;;;;;;;10.99;100.00;98013.78;4501522;31;20096;-65
2023/05/15 02:42:05;;;;;;;27.85;11.82;;;;;;;11.00;100.00;98012.81;4501766;31;20088;-65
2023/05/15 02:44:34;;;;;;;18.60;11.65;;;;;;;11.03;100.00;98007.25;4501782;31;20118;-65
2023/05/15 02:47:03;;;;;;;17.65;10.63;;;;;;;10.99;100.00;98004.13;4501541;31;20517;-66
2023/05/15 02:49:32;;;;;;;22.52;11.75;;;;;;;10.95;100.00;98007.22;4500097;31;20153;-65
2023/05/15 02:52:00;;;;;;;17.35;11.52;;;;;;;11.03;100.00;98006.44;4499982;31;20570;-65
2023/05/15 02:54:27;;;;;;;19.00;11.63;;;;;;;11.07;100.00;98005.97;4501093;31;20123;-65
2023/05/15 02:56:54;;;;;;;24.42;10.65;;;;;;;11.01;100.00;97996.91;4501168;31;20091;-65
2023/05/15 02:59:22;;;;;;;33.65;10.60;;;;;;;11.10;100.00;97989.91;4501446;31;20425;-65
2023/05/15 03:01:49;;;;;;;26.73;12.43;;;;;;;11.06;100.00;97993.81;4501402;31;20092;-66
2023/05/15 03:04:16;;;;;;;29.92;11.43;;;;;;;11.10;100.00;98003.03;4501352;31;20490;-65
2023/05/15 03:06:43;;;;;;;36.28;10.85;;;;;;;11.13;100.00;97980.91;4501374;31;20091;-65
2023/05/15 03:09:11;;;;;;;35.05;11.68;;;;;;;11.10;100.00;97976.81;4501258;31;20092;-65
2023/05/15 03:11:38;;;;;;;37.75;9.95;;;;;;;11.10;100.00;97976.81;4500339;31;20152;-65
2023/05/15 03:14:05;;;;;;;24.75;10.75;;;;;;;11.20;100.00;97966.16;4485427;32;20490;-66
2023/05/15 03:16:32;;;;;;;18.25;10.63;;;;;;;11.14;100.00;97951.91;4499446;31;20087;-65
2023/05/15 03:18:59;;;;;;;39.65;11.12;;;;;;;11.14;100.00;97957.16;4501366;31;20585;-65
2023/05/15 03:21:26;;;;;;;61.37;11.40;;;;;;;11.09;100.00;97961.25;4500111;31;20131;-65
2023/05/15 03:23:55;;;;;;;26.33;9.85;;;;;;;11.06;100.00;97953.69;4499615;31;20092;-65
2023/05/15 03:26:23;;;;;;;86.37;11.73;;;;;;;11.12;100.00;97946.00;4500130;31;20095;-65
2023/05/15 03:28:50;;;;;;;52.05;11.40;;;;;;;11.24;100.00;97940.47;4501280;31;20151;-65
2023/05/15 03:31:18;;;;;;;27.45;11.48;;;;;;;11.21;100.00;97940.78;4501125;31;20092;-65
2023/05/15 03:33:48;;;;;;;30.95;10.50;;;;;;;11.19;100.00;97949.63;4501058;31;20477;-65
2023/05/15 03:36:15;;;;;;;26.00;10.68;;;;;;;11.17;100.00;97953.38;4501070;31;20487;-65
2023/05/15 03:38:43;;;;;;;63.55;11.77;;;;;;;11.20;100.00;97947.81;4501206;31;20163;-65
2023/05/15 03:41:10;;;;;;;38.10;10.52;;;;;;;11.23;100.00;97944.06;4501090;31;20484;-66
2023/05/15 03:43:37;;;;;;;31.87;11.05;;;;;;;11.25;100.00;97942.09;4500936;31;20147;-65
2023/05/15 03:46:04;;;;;;;61.20;11.95;;;;;;;11.24;100.00;97950.94;4501060;31;20548;-65
2023/05/15 03:48:31;;;;;;;28.85;11.25;;;;;;;11.27;100.00;97940.94;4501023;31;20088;-65
2023/05/15 03:50:58;;;;;;;34.55;10.85;;;;;;;11.33;100.00;97944.72;4501062;31;20163;-65
2023/05/15 03:53:29;;;;;;;36.40;12.05;;;;;;;11.34;100.00;97946.38;4500911;31;20084;-65
2023/05/15 03:55:56;;;;;;;35.67;12.00;;;;;;;11.35;100.00;97942.75;4499747;31;20514;-65
2023/05/15 03:58:25;;;;;;;35.22;11.32;;;;;;;11.40;100.00;97932.62;4500763;31;20084;-65
2023/05/15 04:00:52;;;;;;;66.70;12.18;;;;;;;11.38;100.00;97926.69;4500990;31;20359;-65
2023/05/15 04:03:19;;;;;;;40.67;12.25;;;;;;;11.40;100.00;97914.25;4500694;31;20153;-66
2023/05/15 04:05:48;;;;;;;50.15;12.32;;;;;;;11.42;100.00;97914.09;4500755;31;20564;-66
2023/05/15 04:08:16;;;;;;;49.60;12.00;;;;;;;11.41;100.00;97915.06;4501022;31;20374;-66
2023/05/15 04:10:43;;;;;;;56.40;12.88;;;;;;;11.47;100.00;97909.97;4489534;31;20615;-66
2023/05/15 04:13:10;;;;;;;67.95;12.65;;;;;;;11.47;100.00;97914.41;4496021;31;20100;-66
2023/05/15 04:15:39;;;;;;;116.30;16.45;;;;;;;11.47;100.00;97904.72;4491013;31;20143;-66
2023/05/15 04:18:06;;;;;;;46.05;12.70;;;;;;;11.49;100.00;97901.94;4499477;31;20171;-66
2023/05/15 04:20:33;;;;;;;53.47;12.43;;;;;;;11.51;100.00;97913.91;4496902;31;20099;-66
2023/05/15 04:23:02;;;;;;;48.63;13.32;;;;;;;11.53;100.00;97904.06;4486841;31;20108;-66
2023/05/15 04:25:31;;;;;;;38.88;12.60;;;;;;;11.59;100.00;97917.53;4481773;31;20148;-66
2023/05/15 04:27:58;;;;;;;54.95;12.68;;;;;;;11.63;100.00;97919.66;4488100;31;20142;-66
2023/05/15 04:30:25;;;;;;;60.95;12.15;;;;;;;11.63;100.00;97927.53;4495949;31;20092;-66
2023/05/15 04:32:53;;;;;;;27.75;11.73;;;;;;;11.67;100.00;97931.47;4499535;31;20110;-66
2023/05/15 04:35:20;;;;;;;39.15;12.32;;;;;;;11.71;100.00;97945.06;4498533;31;20092;-66
2023/05/15 04:37:47;;;;;;;26.40;11.88;;;;;;;11.71;100.00;97947.69;4487152;31;20513;-66
2023/05/15 04:40:15;;;;;;;27.67;12.77;;;;;;;11.77;100.00;97954.09;4491698;31;20119;-66
2023/05/15 04:42:42;;;;;;;56.65;13.50;;;;;;;11.72;100.00;97950.16;4497500;31;20096;-66
2023/05/15 04:45:10;;;;;;;50.75;11.98;;;;;;;11.69;100.00;97962.78;4490071;31;20100;-66
2023/05/15 04:47:37;;;;;;;28.73;13.50;;;;;;;11.68;100.00;97963.75;4498914;31;20159;-66
2023/05/15 04:50:05;;;;;;;57.83;12.70;;;;;;;11.73;100.00;97969.34;4498280;31;20096;-66
2023/05/15 04:52:32;;;;;;;40.60;11.95;;;;;;;11.72;100.00;97980.84;4499196;31;20107;-66
2023/05/15 04:55:00;;;;;;;40.28;11.77;;;;;;;11.83;100.00;97987.56;4499562;31;20175;-66
2023/05/15 04:57:27;;;;;;;50.08;12.25;;;;;;;11.87;100.00;97988.87;4497834;31;20103;-66
2023/05/15 04:59:54;;;;;;;77.20;12.98;;;;;;;11.83;100.00;97998.06;4499586;31;20100;-66
2023/05/15 05:02:22;;;;;;;51.10;13.73;;;;;;;11.87;100.00;97994.13;4496114;31;20163;-66
2023/05/15 05:04:49;;;;;;;69.95;13.00;;;;;;;11.76;100.00;97992.62;4497253;31;20448;-66
2023/05/15 05:07:16;;;;;;;72.15;13.05;;;;;;;11.74;100.00;97989.34;4483439;31;20494;-66
2023/05/15 05:09:44;;;;;;;68.65;12.15;;;;;;;11.79;100.00;97980.97;4491833;31;20088;-67
2023/05/15 05:12:11;;;;;;;135.90;13.65;;;;;;;11.81;100.00;97992.12;4489373;31;20123;-66
2023/05/15 05:14:40;;;;;;;115.03;12.95;;;;;;;11.85;100.00;97999.53;4483118;31;20099;-66
2023/05/15 05:17:08;;;;;;;106.60;13.65;;;;;;;11.82;100.00;98002.47;4487883;31;20103;-66
2023/05/15 05:19:36;;;;;;;133.12;13.55;;;;;;;11.85;100.00;98006.56;4489777;31;20092;-66
2023/05/15 05:22:04;;;;;;;70.97;12.15;;;;;;;11.85;100.00;98012.66;4492681;31;20130;-66
2023/05/15 05:24:34;;;;;;;117.57;13.62;;;;;;;11.88;100.00;98007.06;4488186;31;20134;-66
2023/05/15 05:27:01;;;;;;;131.77;15.18;;;;;;;11.90;100.00;98002.47;4490753;31;20096;-67
2023/05/15 05:29:29;;;;;;;250.70;18.37;;;;;;;11.94;100.00;98002.19;4496427;31;20104;-67
2023/05/15 05:31:56;;;;;;;99.28;12.20;;;;;;;11.98;100.00;97995.63;4487750;31;20206;-66
2023/05/15 05:34:24;;;;;;;70.03;11.98;;;;;;;12.07;100.00;97992.81;4494134;31;20087;-65
2023/05/15 05:36:51;;;;;;;53.38;11.57;;;;;;;12.14;100.00;97979.84;4487488;31;20123;-67
2023/05/15 05:39:20;;;;;;;78.05;12.68;;;;;;;12.24;100.00;97974.41;4493969;31;20123;-67
2023/05/15 05:41:47;;;;;;;83.80;13.50;;;;;;;12.23;100.00;97983.25;4495635;31;20151;-67
2023/05/15 05:44:14;;;;;;;47.72;10.10;;;;;;;12.20;100.00;97991.47;4496430;31;20122;-67
2023/05/15 05:46:41;;;;;;;35.10;11.10;;;;;;;12.21;100.00;97995.75;4491199;31;20096;-67
2023/05/15 05:49:08;;;;;;;41.70;10.18;;;;;;;12.25;100.00;97992.62;4493289;31;20152;-67
2023/05/15 05:51:36;;;;;;;24.05;10.55;;;;;;;12.34;100.00;97995.22;4497940;31;20118;-68
2023/05/15 05:54:03;;;;;;;27.70;10.10;;;;;;;12.50;100.00;97995.19;4500562;31;20092;-67
2023/05/15 05:56:30;;;;;;;20.98;10.32;;;;;;;12.60;100.00;97995.81;4494778;31;20115;-67
2023/05/15 05:59:00;;;;;;;18.67;8.68;;;;;;;12.67;100.00;97998.59;4489589;31;20092;-67
2023/05/15 06:01:28;;;;;;;16.70;9.27;;;;;;;12.80;100.00;98003.31;4486380;31;20199;-66
2023/05/15 06:03:56;;;;;;;24.87;10.38;;;;;;;13.05;100.00;97997.94;4485081;31;20629;-67
2023/05/15 06:06:23;;;;;;;16.27;8.88;;;;;;;13.35;100.00;97998.94;4488387;31;20095;-66
2023/05/15 06:08:50;;;;;;;15.82;9.25;;;;;;;13.69;100.00;98004.81;4483418;31;20656;-67
2023/05/15 06:11:21;;;;;;;16.80;8.85;;;;;;;13.73;100.00;98019.28;4480801;31;20112;-66
2023/05/15 06:13:51;;;;;;;14.57;8.23;;;;;;;13.73;100.00;98025.38;4485458;31;20152;-66
2023/05/15 06:16:18;;;;;;;15.73;8.75;;;;;;;13.89;100.00;98016.50;4485991;31;20107;-67
2023/05/15 06:18:46;;;;;;;13.05;7.07;;;;;;;13.86;100.00;98010.78;4483810;31;20117;-66
2023/05/15 06:21:13;;;;;;;14.32;7.00;;;;;;;13.87;100.00;98015.88;4485344;31;20115;-67
2023/05/15 06:23:40;;;;;;;13.25;7.07;;;;;;;13.80;100.00;98025.47;4484726;31;20103;-66
2023/05/15 06:26:08;;;;;;;14.93;8.27;;;;;;;14.08;100.00;98020.50;4484455;31;20114;-67
2023/05/15 06:28:35;;;;;;;12.93;8.27;;;;;;;14.18;100.00;98021.03;4482418;31;20897;-67
2023/05/15 06:31:02;;;;;;;13.00;7.82;;;;;;;14.27;100.00;98013.06;4485027;31;20084;-67
2023/05/15 06:33:30;;;;;;;11.80;7.85;;;;;;;14.38;100.00;98021.34;4489250;31;20130;-67
2023/05/15 06:35:57;;;;;;;15.27;8.32;;;;;;;14.53;100.00;98024.00;4478839;31;20233;-66
2023/05/15 06:38:24;;;;;;;13.35;8.18;;;;;;;14.36;100.00;98023.34;4487662;31;20068;-67
2023/05/15 06:40:52;;;;;;;12.77;7.40;;;;;;;14.38;100.00;98018.72;4484409;31;20105;-67
2023/05/15 06:43:19;;;;;;;12.07;7.15;;;;;;;14.32;100.00;98010.69;4482512;31;20096;-65
2023/05/15 06:45:46;;;;;;;11.85;7.15;;;;;;;14.20;100.00;98013.78;4482423;31;21886;-66
2023/05/15 06:48:13;;;;;;;11.88;6.95;;;;;;;14.23;100.00;98009.16;4482095;31;20088;-67
2023/05/15 06:50:40;;;;;;;9.23;7.00;;;;;;;14.28;100.00;98004.97;4484935;31;20127;-67
2023/05/15 06:53:08;;;;;;;12.37;6.82;;;;;;;14.44;100.00;98005.81;4484938;31;20102;-67
2023/05/15 06:55:37;;;;;;;10.07;6.40;;;;;;;14.60;100.00;98003.00;4483472;31;20152;-67
2023/05/15 06:58:04;;;;;;;9.18;5.62;;;;;;;14.90;100.00;97998.56;4485553;31;20218;-66
2023/05/15 07:00:31;;;;;;;11.18;5.97;;;;;;;15.37;100.00;98009.66;4487455;31;20592;-65
2023/05/15 07:02:58;;;;;;;9.57;5.70;;;;;;;15.75;100.00;98021.81;4483501;31;20560;-66
2023/05/15 07:05:26;;;;;;;8.98;6.12;;;;;;;15.57;100.00;98015.12;4485143;31;20461;-66
2023/05/15 07:07:54;;;;;;;9.43;5.95;;;;;;;15.73;100.00;98022.00;4484930;31;20112;-65
2023/05/15 07:10:27;;;;;;;9.10;5.87;;;;;;;15.63;100.00;98016.22;4484409;31;20168;-66
2023/05/15 07:12:55;;;;;;;8.20;5.32;;;;;;;15.47;100.00;98029.66;4482367;31;20104;-66
2023/05/15 07:15:22;;;;;;;9.30;5.97;;;;;;;15.41;100.00;98032.03;4482511;31;20104;-67
2023/05/15 07:17:49;;;;;;;9.82;5.45;;;;;;;15.43;100.00;98037.13;4482589;31;20149;-67
2023/05/15 07:20:16;;;;;;;8.20;5.15;;;;;;;15.67;100.00;98043.88;4473881;31;20572;-68
2023/05/15 07:22:43;;;;;;;10.32;5.97;;;;;;;15.91;100.00;98048.03;4484046;31;20100;-68
2023/05/15 07:25:23;;;;;;;10.00;6.10;;;;;;;16.05;100.00;98059.50;4482395;31;20121;-68
2023/05/15 07:27:51;;;;;;;8.82;5.55;;;;;;;15.87;100.00;98062.59;4484059;31;20128;-69
2023/05/15 07:30:19;;;;;;;8.70;5.80;;;;;;;15.91;100.00;98057.75;4484454;31;20603;-68
2023/05/15 07:32:46;;;;;;;9.70;6.18;;;;;;;15.98;100.00;98057.81;4482490;31;20375;-68
2023/05/15 07:35:13;;;;;;;9.27;5.72;;;;;;;16.08;100.00;98048.56;4484623;31;20603;-68
2023/05/15 07:37:41;;;;;;;11.75;6.20;;;;;;;16.20;100.00;98037.47;4485216;31;20156;-68
2023/05/15 07:40:09;;;;;;;7.47;5.07;;;;;;;16.37;100.00;98038.84;4486574;31;20100;-68
2023/05/15 07:42:36;;;;;;;7.90;4.93;;;;;;;16.55;100.00;98035.69;4483636;31;20149;-68
2023/05/15 07:45:04;;;;;;;8.90;6.15;;;;;;;16.48;100.00;98038.28;4485939;31;20122;-68
2023/05/15 07:47:31;;;;;;;8.07;5.45;;;;;;;16.40;100.00;98035.00;4486635;31;20147;-68
2023/05/15 07:49:58;;;;;;;9.77;5.35;;;;;;;16.47;100.00;98030.53;4480838;31;81064;-68
2023/05/15 07:52:25;;;;;;;6.43;4.57;;;;;;;16.21;100.00;98026.69;4483869;31;20160;-67
2023/05/15 07:54:52;;;;;;;7.12;5.22;;;;;;;16.20;100.00;98016.31;4487266;31;20141;-66
2023/05/15 07:57:20;;;;;;;6.68;3.95;;;;;;;16.11;100.00;98027.03;4483549;31;20129;-67
2023/05/15 07:59:47;;;;;;;6.07;4.43;;;;;;;16.04;100.00;98047.31;4486080;31;20095;-66
2023/05/15 08:02:14;;;;;;;7.45;4.70;;;;;;;16.04;100.00;98060.50;4486466;31;20142;-67
2023/05/15 08:04:42;;;;;;;5.18;4.07;;;;;;;16.00;100.00;98071.66;4486174;31;20112;-66
2023/05/15 08:07:10;;;;;;;6.37;4.20;;;;;;;16.19;100.00;98072.84;4482528;31;20088;-67
2023/05/15 08:09:37;;;;;;;7.65;4.22;;;;;;;16.29;100.00;98063.59;4486186;31;20088;-67
2023/05/15 08:12:22;;;;;;;7.80;4.87;;;;;;;16.37;100.00;98053.88;4483371;31;20118;-67
2023/05/15 08:14:51;;;;;;;6.30;4.18;;;;;;;16.65;100.00;98059.97;4484095;31;20144;-67
2023/05/15 08:17:19;;;;;;;5.55;4.25;;;;;;;16.96;100.00;98055.31;4483816;31;20413;-67
2023/05/15 08:19:47;;;;;;;5.22;4.15;;;;;;;17.01;100.00;98056.31;4485385;31;20093;-67
2023/05/15 08:22:14;;;;;;;6.80;4.28;;;;;;;17.02;100.00;98054.53;4485478;31;20176;-67
2023/05/15 08:24:42;;;;;;;6.45;4.28;;;;;;;17.37;100.00;98062.41;4484605;31;20122;-66
2023/05/15 08:27:09;;;;;;;5.43;4.37;;;;;;;17.55;100.00;98067.97;4487918;31;20083;-66
2023/05/15 08:29:37;;;;;;;6.50;4.55;;;;;;;17.56;100.00;98066.13;4486746;31;20108;-68
2023/05/15 08:32:07;;;;;;;5.53;4.00;;;;;;;17.66;100.00;98061.25;4484548;31;20522;-67
2023/05/15 08:34:35;;;;;;;5.25;4.25;;;;;;;17.37;100.00;98059.75;4485261;31;20100;-68
2023/05/15 08:37:03;;;;;;;6.40;4.28;;;;;;;17.15;100.00;98059.03;4482911;31;20095;-67
2023/05/15 08:39:30;;;;;;;7.43;3.92;;;;;;;17.03;100.00;98056.97;4482401;31;20159;-67
2023/05/15 08:42:30;;;;;;;5.75;4.10;;;;;;;17.17;100.00;98054.38;4483908;31;20104;-67
2023/05/15 08:45:00;;;;;;;7.10;4.07;;;;;;;17.69;100.00;98047.59;4483414;31;20130;-67
2023/05/15 08:47:28;;;;;;;6.12;4.37;;;;;;;18.10;100.00;98045.88;4483786;31;20139;-67
2023/05/15 08:49:59;;;;;;;5.03;3.75;;;;;;;18.50;100.00;98056.47;4486590;31;20163;-67
2023/05/15 08:52:27;;;;;;;4.93;3.47;;;;;;;18.53;100.00;98056.06;4484910;31;20096;-67
2023/05/15 08:54:55;;;;;;;4.82;3.22;;;;;;;18.43;100.00;98047.69;4481608;31;20130;-67
2023/05/15 08:57:22;;;;;;;5.43;3.30;;;;;;;18.53;100.00;98048.09;4484371;31;20177;-66
2023/05/15 08:59:51;;;;;;;4.97;3.80;;;;;;;18.18;100.00;98040.38;4480831;31;20100;-67
2023/05/15 09:02:19;;;;;;;5.37;3.62;;;;;;;18.29;100.00;98036.28;4477947;31;20141;-67
2023/05/15 09:04:46;;;;;;;3.00;2.28;;;;;;;18.40;100.00;98040.16;4481772;31;20157;-67
2023/05/15 09:07:14;;;;;;;3.05;2.30;;;;;;;18.35;100.00;98047.88;4484979;31;20111;-66
2023/05/15 09:09:42;;;;;;;4.32;2.92;;;;;;;18.07;100.00;98064.81;4481835;31;20163;-68
2023/05/15 09:12:16;;;;;;;3.25;2.40;;;;;;;17.83;100.00;98063.53;4480314;31;20088;-68
2023/05/15 09:14:44;;;;;;;2.50;2.20;;;;;;;17.62;100.00;98067.16;4481558;31;20103;-67
2023/05/15 09:17:11;;;;;;;3.10;2.70;;;;;;;17.87;100.00;98072.72;4490295;31;20139;-67
2023/05/15 09:19:40;;;;;;;4.43;2.78;;;;;;;17.86;100.00;98071.88;4488574;31;20096;-68
2023/05/15 09:22:23;;;;;;;2.75;2.30;;;;;;;17.68;100.00;98084.91;4489953;31;20096;-68
2023/05/15 09:24:51;;;;;;;2.25;1.98;;;;;;;18.11;100.00;98089.91;4487293;31;20164;-66
2023/05/15 09:27:19;;;;;;;2.58;2.35;;;;;;;18.12;100.00;98080.91;4487742;31;20167;-67
2023/05/15 09:29:46;;;;;;;2.90;2.10;;;;;;;17.86;100.00;98081.69;4485753;31;20144;-69
2023/05/15 09:32:14;;;;;;;2.78;1.90;;;;;;;18.16;100.00;98092.75;4487378;31;20096;-69
2023/05/15 09:34:43;;;;;;;3.28;2.03;;;;;;;18.60;100.00;98104.59;4489032;31;20103;-69
2023/05/15 09:37:31;;;;;;;4.82;1.90;;;;;;;18.23;100.00;98112.16;4478368;31;20491;-70
2023/05/15 09:40:09;;;;;;;2.05;1.83;;;;;;;17.90;100.00;98110.25;4484460;31;20118;-69
2023/05/15 09:42:37;;;;;;;2.00;1.77;;;;;;;17.89;100.00;98111.25;4484958;31;20076;-69
2023/05/15 09:45:05;;;;;;;2.35;1.50;;;;;;;18.37;100.00;98107.66;4484139;31;20132;-70
2023/05/15 09:47:33;;;;;;;1.90;1.50;;;;;;;18.57;100.00;98112.97;4486077;31;20100;-69
2023/05/15 09:50:01;;;;;;;1.52;1.27;;;;;;;18.86;100.00;98113.56;4489005;31;20173;-68
2023/05/15 09:52:29;;;;;;;2.58;1.80;;;;;;;18.69;100.00;98107.84;4487627;31;20101;-69
2023/05/15 09:54:56;;;;;;;2.83;1.50;;;;;;;18.61;100.00;98106.22;4485305;31;20108;-69
2023/05/15 09:57:24;;;;;;;2.03;1.60;;;;;;;18.70;100.00;98111.31;4477042;31;20932;-68
2023/05/15 09:59:51;;;;;;;1.48;1.25;;;;;;;18.97;100.00;98109.50;4482761;31;20633;-69
2023/05/15 10:02:33;;;;;;;2.70;1.80;;;;;;;19.17;100.00;98109.44;4485782;31;20465;-69
2023/05/15 10:05:01;;;;;;;1.80;1.45;;;;;;;18.63;100.00;98108.69;4487323;31;20115;-68
2023/05/15 10:07:30;;;;;;;2.55;1.70;;;;;;;18.55;100.00;98107.06;4485125;31;20521;-69
2023/05/15 10:09:58;;;;;;;6.30;1.37;;;;;;;18.57;100.00;98110.31;4497998;31;20096;-69
2023/05/15 10:12:26;;;;;;;1.95;1.70;;;;;;;19.04;100.00;98104.16;4488237;31;20119;-65
2023/05/15 10:14:57;;;;;;;2.92;2.17;;;;;;;19.06;100.00;98102.94;4486242;31;20823;-68
2023/05/15 10:17:28;;;;;;;4.07;2.58;;;;;;;18.70;100.00;98109.50;4495074;31;20143;-68
2023/05/15 10:19:57;;;;;;;2.30;2.10;;;;;;;18.05;100.00;98109.28;4492879;31;20179;-69
2023/05/15 10:22:28;;;;;;;2.75;2.00;;;;;;;17.69;100.00;98100.59;4498630;31;20135;-69
2023/05/15 10:25:02;;;;;;;3.75;2.03;;;;;;;17.77;100.00;98112.03;4498951;31;20099;-69
2023/05/15 10:27:31;;;;;;;2.58;1.98;;;;;;;18.13;100.00;98109.06;4492931;31;20088;-69
2023/05/15 10:29:59;;;;;;;3.08;2.45;;;;;;;18.43;100.00;98109.50;4490145;31;20359;-68
2023/05/15 10:32:26;;;;;;;2.05;1.75;;;;;;;18.54;100.00;98105.41;4483199;31;20084;-68
2023/05/15 10:34:55;;;;;;;2.58;1.80;;;;;;;18.69;100.00;98109.72;4497010;31;20108;-66
2023/05/15 10:37:22;;;;;;;2.45;1.85;;;;;;;18.54;100.00;98109.91;4483228;31;20695;-65
2023/05/15 10:39:52;;;;;;;2.65;2.00;;;;;;;18.61;100.00;98116.03;4492822;31;20191;-65
2023/05/15 10:42:19;;;;;;;2.42;1.65;;;;;;;18.38;100.00;98117.25;4484468;31;20088;-66
2023/05/15 10:44:47;;;;;;;3.72;2.60;;;;;;;18.27;100.00;98120.50;4483222;31;20135;-65
2023/05/15 10:47:14;;;;;;;2.30;1.90;;;;;;;18.25;100.00;98117.25;4484462;31;20108;-66
2023/05/15 10:49:42;;;;;;;8.00;2.50;;;;;;;18.25;100.00;98111.94;4491388;31;20187;-66
2023/05/15 10:52:09;;;;;;;2.47;2.03;;;;;;;18.19;100.00;98120.72;4487766;31;20168;-65
2023/05/15 10:54:36;;;;;;;2.78;2.50;;;;;;;18.42;100.00;98120.31;4481222;31;20159;-64
2023/05/15 10:57:05;;;;;;;2.37;2.08;;;;;;;18.78;100.00;98122.53;4489635;31;20600;-65
2023/05/15 10:59:33;;;;;;;4.25;2.20;;;;;;;19.44;100.00;98120.78;4481453;31;20173;-65
2023/05/15 11:02:24;;;;;;;4.07;1.80;;;;;;;19.65;100.00;98117.03;4483039;31;20097;-66
2023/05/15 11:05:01;;;;;;;3.30;2.28;;;;;;;19.56;100.00;98112.97;4486039;31;20552;-65
2023/05/15 11:07:28;;;;;;;22.33;3.15;;;;;;;19.97;100.00;98111.78;4484236;31;20100;-65
2023/05/15 11:09:56;;;;;;;5.03;3.17;;;;;;;19.29;100.00;98104.31;4483095;31;20156;-65
2023/05/15 11:12:23;;;;;;;3.72;2.85;;;;;;;18.75;100.00;98111.53;4484542;31;20407;-64
2023/05/15 11:14:50;;;;;;;4.03;2.85;;;;;;;18.92;100.00;98107.44;4484009;31;20095;-65
2023/05/15 11:17:18;;;;;;;3.42;2.40;;;;;;;18.44;100.00;98105.84;4485334;31;20441;-65
2023/05/15 11:19:47;;;;;;;3.78;2.60;;;;;;;18.54;100.00;98104.59;4486512;31;20104;-66
2023/05/15 11:22:20;;;;;;;2.33;2.05;;;;;;;18.58;100.00;98096.03;4482321;31;20127;-66
2023/05/15 11:24:49;;;;;;;2.25;1.87;;;;;;;18.57;100.00;98098.91;4488060;31;20088;-65
2023/05/15 11:27:22;;;;;;;2.70;2.30;;;;;;;18.80;100.00;98101.09;4484682;31;20448;-65